Time;durP1;ratioP1;P1;durP2;ratioP2;P2;SDS_P1;SDS_P2;PMS_P1;PMS_P2;Temp;Humidity;BMP_temperature;BMP_pressure;BME280_temperature;BME280_humidity;BME280_pressure;Samples;Min_cycle;Max_cycle;Signal;HPM_P1;HPM_P2
2022/04/09 06:59:26;;;;;;;3.92;1.50;;;;;;;;;;12850587;22;1551149;-80
2022/04/09 07:04:27;;;;;;;4.38;1.38;;;;;;;;;;12885089;23;20036;-80
2022/04/09 07:09:30;;;;;;;5.75;1.30;;;;;;;;;;12889087;23;20012;-82
2022/04/09 07:14:31;;;;;;;7.80;1.95;;;;;;;;;;12879954;23;20000;-79
2022/04/09 07:19:31;;;;;;;;;;;;;;;;;;12870576;23;20020;-78
2022/04/09 07:24:33;;;;;;;6.43;2.67;;;;;;;;;;12845643;23;19987;-78
2022/04/09 07:29:33;;;;;;;;;;;;;;;;;;12884324;23;20014;-77
2022/04/09 07:34:35;;;;;;;4.90;1.52;;;;;;;;;;12855048;23;20324;-78
2022/04/09 07:39:37;;;;;;;5.82;2.45;;;;;;;;;;12885720;23;20008;-78
2022/04/09 07:44:38;;;;;;;8.07;2.72;;;;;;;;;;12879594;23;20004;-78
2022/04/09 07:49:39;;;;;;;6.40;3.45;;;;;;;;;;12870655;23;20107;-79
2022/04/09 07:54:40;;;;;;;8.40;4.90;;;;;;;;;;12874226;23;20087;-79
2022/04/09 07:59:41;;;;;;;7.63;3.80;;;;;;;;;;12873766;23;20020;-80
2022/04/09 08:04:42;;;;;;;;;;;;;;;;;;12872340;23;20011;-80
2022/04/09 08:09:46;;;;;;;9.13;3.88;;;;;;;;;;12846573;23;20308;-78
2022/04/09 08:14:47;;;;;;;6.20;2.83;;;;;;;;;;12872775;23;20003;-80
2022/04/09 08:19:48;;;;;;;6.82;3.25;;;;;;;;;;12873334;23;20326;-79
2022/04/09 08:24:49;;;;;;;5.70;2.63;;;;;;;;;;12870996;23;20008;-79
2022/04/09 08:29:50;;;;;;;9.07;4.32;;;;;;;;;;12872550;23;20015;-80
2022/04/09 08:34:52;;;;;;;5.30;2.63;;;;;;;;;;12872919;23;20283;-79
2022/04/09 08:39:54;;;;;;;9.77;2.58;;;;;;;;;;12870371;23;20083;-79
2022/04/09 08:44:55;;;;;;;6.93;2.50;;;;;;;;;;12868634;23;20115;-79
2022/04/09 08:49:56;;;;;;;4.60;2.60;;;;;;;;;;12867018;23;20000;-79
2022/04/09 08:54:59;;;;;;;5.63;2.00;;;;;;;;;;12840817;23;20079;-78
2022/04/09 09:00:03;;;;;;;7.13;2.83;;;;;;;;;;12868117;23;20031;-80
2022/04/09 09:05:05;;;;;;;7.80;3.33;;;;;;;;;;12869967;23;20104;-79
2022/04/09 09:10:16;;;;;;;6.10;2.03;;;;;;;;;;12868898;23;20377;-79
2022/04/09 09:15:17;;;;;;;10.40;6.22;;;;;;;;;;12868086;23;20019;-79
2022/04/09 09:20:18;;;;;;;7.88;1.90;;;;;;;;;;12865006;23;20020;-78
2022/04/09 09:25:21;;;;;;;4.07;1.40;;;;;;;;;;12867909;23;20452;-78
2022/04/09 09:30:22;;;;;;;4.20;1.90;;;;;;;;;;12873187;23;20059;-79
2022/04/09 09:35:26;;;;;;;3.45;1.45;;;;;;;;;;12872413;23;20048;-80
2022/04/09 09:40:33;;;;;;;1.83;0.77;;;;;;;;;;12870578;23;20005;-78
2022/04/09 09:45:43;;;;;;;2.58;1.20;;;;;;;;;;12883947;23;20027;-80
2022/04/09 09:50:45;;;;;;;4.07;2.90;;;;;;;;;;12876693;22;20023;-82
2022/04/09 09:55:46;;;;;;;3.30;1.50;;;;;;;;;;12944948;23;20035;-83
2022/04/09 10:00:48;;;;;;;3.90;1.80;;;;;;;;;;12938067;23;20012;-83
2022/04/09 10:05:50;;;;;;;2.47;1.30;;;;;;;;;;12920906;23;20001;-80
2022/04/09 10:10:51;;;;;;;2.08;1.10;;;;;;;;;;12912030;22;20039;-79
2022/04/09 10:15:52;;;;;;;;;;;;;;;;;;12909896;23;20082;-78
2022/04/09 10:20:55;;;;;;;3.20;1.20;;;;;;;;;;12921738;22;19903;-83
2022/04/09 10:25:56;;;;;;;4.68;1.70;;;;;;;;;;12946979;23;20000;-81
2022/04/09 10:30:58;;;;;;;2.47;1.20;;;;;;;;;;12924648;22;20022;-82
2022/04/09 10:36:02;;;;;;;3.10;1.40;;;;;;;;;;12928853;23;20000;-82
2022/04/09 10:41:03;;;;;;;1.85;0.60;;;;;;;;;;12939108;22;20011;-82
2022/04/09 10:46:05;;;;;;;1.50;0.60;;;;;;;;;;12949639;23;20028;-81
2022/04/09 10:51:08;;;;;;;1.35;0.70;;;;;;;;;;12924268;22;20050;-79
2022/04/09 10:56:13;;;;;;;1.90;0.80;;;;;;;;;;12924615;23;20000;-81
2022/04/09 11:01:33;;;;;;;1.15;0.60;;;;;;;;;;12910714;22;20036;-78
2022/04/09 11:06:40;;;;;;;3.28;1.00;;;;;;;;;;12941732;23;20340;-78
2022/04/09 11:11:43;;;;;;;2.72;1.25;;;;;;;;;;12944551;22;20380;-81
2022/04/09 11:16:44;;;;;;;2.45;1.27;;;;;;;;;;12939651;23;20007;-82
2022/04/09 11:21:50;;;;;;;3.85;1.00;;;;;;;;;;12923125;22;20317;-81
2022/04/09 11:26:55;;;;;;;3.90;2.03;;;;;;;;;;12926115;23;20034;-82
2022/04/09 11:31:55;;;;;;;3.10;0.80;;;;;;;;;;12916316;22;20024;-78
2022/04/09 11:37:10;;;;;;;3.15;0.90;;;;;;;;;;12927185;23;20005;-82
2022/04/09 11:42:11;;;;;;;3.33;0.85;;;;;;;;;;12923725;22;20087;-81
2022/04/09 11:47:14;;;;;;;4.53;1.10;;;;;;;;;;12926406;23;20004;-81
2022/04/09 11:52:28;;;;;;;4.95;1.00;;;;;;;;;;12920291;22;20008;-85
2022/04/09 11:57:35;;;;;;;1.45;0.60;;;;;;;;;;12920445;23;20573;-84
2022/04/09 12:02:36;;;;;;;2.00;0.50;;;;;;;;;;12937638;22;20001;-85
2022/04/09 12:07:41;;;;;;;2.35;0.70;;;;;;;;;;12913551;23;20007;-84
2022/04/09 12:12:43;;;;;;;1.55;0.50;;;;;;;;;;12912030;22;20016;-85
2022/04/09 12:17:44;;;;;;;1.70;0.73;;;;;;;;;;12910118;23;20123;-85
2022/04/09 12:22:54;;;;;;;2.17;0.60;;;;;;;;;;12922646;22;20004;-85
2022/04/09 12:28:01;;;;;;;1.13;0.40;;;;;;;;;;12928488;23;20392;-85
2022/04/09 12:33:11;;;;;;;2.42;0.70;;;;;;;;;;12949512;22;20393;-83
2022/04/09 12:38:16;;;;;;;1.50;0.88;;;;;;;;;;12943454;23;19989;-82
2022/04/09 12:43:31;;;;;;;1.80;0.80;;;;;;;;;;12943987;23;19992;-81
2022/04/09 12:48:49;;;;;;;3.17;1.30;;;;;;;;;;12916587;23;20011;-82
2022/04/09 12:53:51;;;;;;;2.47;0.88;;;;;;;;;;12938472;22;20020;-82
2022/04/09 12:58:53;;;;;;;3.63;1.40;;;;;;;;;;12908244;23;20030;-83
2022/04/09 13:03:54;;;;;;;3.63;1.50;;;;;;;;;;12909314;23;20436;-81
2022/04/09 13:08:55;;;;;;;3.80;1.15;;;;;;;;;;12907123;23;20007;-81
2022/04/09 13:13:57;;;;;;;2.20;1.17;;;;;;;;;;12923084;23;20001;-81
2022/04/09 13:18:58;;;;;;;2.42;1.20;;;;;;;;;;12919808;23;20034;-82
2022/04/09 13:23:59;;;;;;;2.60;1.23;;;;;;;;;;12906622;23;20031;-82
2022/04/09 13:29:00;;;;;;;1.67;0.80;;;;;;;;;;12906308;23;20004;-82
2022/04/09 13:34:01;;;;;;;2.03;1.00;;;;;;;;;;12908915;23;20057;-83
2022/04/09 13:39:02;;;;;;;3.63;1.30;;;;;;;;;;12963655;23;20006;-81
2022/04/09 13:44:04;;;;;;;4.47;1.00;;;;;;;;;;12928914;23;20009;-81
2022/04/09 13:49:04;;;;;;;;;;;;;;;;;;12918745;23;20004;-82
2022/04/09 13:54:06;;;;;;;4.63;2.40;;;;;;;;;;12914721;23;19907;-82
2022/04/09 13:59:07;;;;;;;2.30;1.10;;;;;;;;;;12914199;23;20484;-82
2022/04/09 14:04:08;;;;;;;1.80;0.85;;;;;;;;;;12940654;22;20146;-82
2022/04/09 14:09:09;;;;;;;5.43;0.80;;;;;;;;;;12913869;23;20004;-82
2022/04/09 14:14:10;;;;;;;;;;;;;;;;;;12912670;23;20011;-82
2022/04/09 14:19:11;;;;;;;1.77;0.60;;;;;;;;;;12911589;23;19899;-82
2022/04/09 14:24:13;;;;;;;1.90;0.90;;;;;;;;;;12916745;23;20344;-82
2022/04/09 14:29:14;;;;;;;1.88;0.77;;;;;;;;;;12916958;23;20011;-82
2022/04/09 14:34:16;;;;;;;2.75;0.75;;;;;;;;;;12933212;23;20056;-81
2022/04/09 14:39:17;;;;;;;;;;;;;;;;;;12933212;23;20100;-81
2022/04/09 14:44:19;;;;;;;4.25;1.30;;;;;;;;;;12919090;23;19938;-81
2022/04/09 14:49:22;;;;;;;3.38;0.90;;;;;;;;;;12919761;23;20030;-81
2022/04/09 14:54:23;;;;;;;4.07;0.93;;;;;;;;;;12919980;23;20068;-81
2022/04/09 14:59:24;;;;;;;2.78;0.75;;;;;;;;;;12920297;23;20379;-82
2022/04/09 15:04:25;;;;;;;1.40;0.60;;;;;;;;;;12918400;23;20010;-82
2022/04/09 15:09:26;;;;;;;2.70;0.90;;;;;;;;;;12916047;23;20008;-82
2022/04/09 15:14:27;;;;;;;2.08;0.52;;;;;;;;;;12915023;23;20036;-82
2022/04/09 15:19:28;;;;;;;3.50;1.10;;;;;;;;;;12916948;23;20027;-82
2022/04/09 15:24:31;;;;;;;2.22;0.80;;;;;;;;;;12941595;23;20015;-82
2022/04/09 15:29:32;;;;;;;1.50;0.57;;;;;;;;;;12941180;23;20004;-82
2022/04/09 15:34:33;;;;;;;;;;;;;;;;;;12916056;23;20027;-82
2022/04/09 15:39:35;;;;;;;2.95;1.15;;;;;;;;;;12915203;23;20277;-82
2022/04/09 15:44:36;;;;;;;2.42;0.98;;;;;;;;;;12916042;23;20031;-82
2022/04/09 15:49:37;;;;;;;3.65;1.15;;;;;;;;;;12915757;23;20004;-82
2022/04/09 15:54:44;;;;;;;1.77;0.70;;;;;;;;;;12868445;23;20024;-82
2022/04/09 15:59:45;;;;;;;4.03;1.00;;;;;;;;;;12855362;23;20011;-81
2022/04/09 16:04:47;;;;;;;;;;;;;;;;;;12807892;23;20085;-82
2022/04/09 16:09:48;;;;;;;2.20;1.08;;;;;;;;;;12794799;23;19987;-80
2022/04/09 16:14:50;;;;;;;;;;;;;;;;;;12793464;23;20005;-79
2022/04/09 16:19:56;;;;;;;2.95;1.10;;;;;;;;;;12790878;23;20027;-79
2022/04/09 16:24:57;;;;;;;2.03;0.70;;;;;;;;;;12791398;23;20015;-82
2022/04/09 16:30:01;;;;;;;1.80;0.70;;;;;;;;;;12793627;23;20429;-82
2022/04/09 16:35:02;;;;;;;2.72;0.98;;;;;;;;;;12791821;23;20345;-80
2022/04/09 16:40:04;;;;;;;3.78;1.30;;;;;;;;;;12817755;23;20005;-80
2022/04/09 16:45:06;;;;;;;3.38;1.20;;;;;;;;;;12789311;23;20092;-81
2022/04/09 16:50:19;;;;;;;1.50;0.73;;;;;;;;;;12789765;23;20015;-80
2022/04/09 16:55:21;;;;;;;3.55;1.27;;;;;;;;;;12813541;23;20017;-80
2022/04/09 17:05:47;;;;;;;;;;;;;;;;;;12817576;23;20005;-80
2022/04/09 17:10:50;;;;;;;1.38;0.60;;;;;;;;;;12775783;23;19934;-80
2022/04/09 17:15:51;;;;;;;2.33;0.90;;;;;;;;;;12766817;23;20005;-81
2022/04/09 17:20:54;;;;;;;1.73;0.60;;;;;;;;;;12792120;23;20012;-80
2022/04/09 17:25:58;;;;;;;1.85;0.75;;;;;;;;;;12818681;23;20325;-79
2022/04/09 17:31:02;;;;;;;1.83;0.80;;;;;;;;;;12765248;23;20024;-79
2022/04/09 17:36:07;;;;;;;2.35;1.00;;;;;;;;;;12817333;23;20028;-79
2022/04/09 17:41:08;;;;;;;2.45;0.93;;;;;;;;;;12817762;23;20012;-79
2022/04/09 17:46:12;;;;;;;;;;;;;;;;;;12790901;23;20009;-81
2022/04/09 17:51:13;;;;;;;2.42;0.80;;;;;;;;;;12818466;23;19909;-81
2022/04/09 17:56:14;;;;;;;2.00;0.90;;;;;;;;;;12792494;23;20460;-81
2022/04/09 18:01:16;;;;;;;1.70;0.80;;;;;;;;;;12790945;23;20392;-82
2022/04/09 18:06:18;;;;;;;1.52;0.65;;;;;;;;;;12790649;23;20012;-81
2022/04/09 18:11:30;;;;;;;1.00;0.68;;;;;;;;;;12790025;23;20009;-79
2022/04/09 18:16:36;;;;;;;1.98;0.85;;;;;;;;;;12793090;23;20349;-81
2022/04/09 18:21:37;;;;;;;2.80;1.23;;;;;;;;;;12793136;23;20001;-81
2022/04/09 18:26:38;;;;;;;;;;;;;;;;;;12789164;23;20005;-81
2022/04/09 18:31:39;;;;;;;1.67;0.70;;;;;;;;;;12788588;23;19904;-81
2022/04/09 18:36:40;;;;;;;;;;;;;;;;;;12792059;23;20024;-81
2022/04/09 18:42:08;;;;;;;2.38;1.08;;;;;;;;;;12791073;23;20374;-81
2022/04/09 18:47:09;;;;;;;2.20;1.05;;;;;;;;;;12795450;23;20096;-81
2022/04/09 18:52:10;;;;;;;;;;;;;;;;;;12799210;23;20072;-81
2022/04/09 18:57:25;;;;;;;2.28;0.95;;;;;;;;;;12791485;23;20407;-81
2022/04/09 19:02:27;;;;;;;4.53;1.40;;;;;;;;;;12820237;23;20005;-81
2022/04/09 19:07:33;;;;;;;3.15;1.35;;;;;;;;;;12794003;23;20468;-80
2022/04/09 19:12:40;;;;;;;2.40;0.90;;;;;;;;;;12798346;23;20005;-80
2022/04/09 19:17:42;;;;;;;2.67;1.23;;;;;;;;;;12824343;23;20053;-80
2022/04/09 19:22:44;;;;;;;2.72;1.20;;;;;;;;;;12797406;23;20009;-80
2022/04/09 19:27:45;;;;;;;2.97;0.98;;;;;;;;;;12819535;23;20009;-80
